Aérodrome :
LOGIN :

S'inscrire | Disclaimer

   EN    FR    IT 

 










Légende :    VFR   VFR Marginal   IFR   IFR Intensif   IFR Très Intensif
Visi : 
Plafond : 
>= 8 km
>= 3000ft
5 à 8 km
1000 à 3000 ft
1500m à 5 km
500 à 1000 ft
800 à 1500m
200 à 500 ft
< 800m
< 200 ft
Symboles :   Orages  Brouillard  Fortes neiges  Fortes précipitations  Vent > 20 kt
SIGMETs :   Divers  Orages  Givrage  Turbulence  Onde Orograph.  Cendres Volcan.







- Altitude de l'aérodrome : 665 ft
- Code IATA : NOC


EIKN - Connaught / Knock- Ireland West

METAR N/A
TAF TAF EIKN
Valide du 21 à 00h jusqu'au 22 à 00h UTC


202300Z 2100/2124 14018G30KT 9999 SCT010 BKN020
BECMG 2102/2105 09015G27KT
TEMPO 2100/2112 3000 SHRA BKN007 SCT020CB
BECMG 2106/2109 31015G27KT
BECMG 2111/2114 31025G40KT
PROB40
TEMPO 2112/2121 7000 -SHRA BKN008 FEW018CB
Pas de NOTAMs connus pour ce terrain.
1 SIGMET publié pour la FIR Shannon (EISN) :
 
Turbulence forte
EISN SIGMET 01 VALID 210230/210630 EINN
EISN SHANNON FIR SEV TURB FCST SW OF LINE N5400 W01500 - N5230 W00530 SFC/FL060 MOV E AT 20KT NC=



MET'MAP, la Météo Aéronautique d'un coup d'oeil ! - Copyright ORBIFLY Décembre 2007 - Disclaimer

ORBIFLY MET'MAP TEAM :

Programmation & Développement : Alexandra Zaïnal
Conception & Développement : Baudouin d'Aumeries
Co-Programmation & Développement : Marc-Olivier Méhu
Soutien technique & logistique : Manuel Goepfert

Contact : metmap@orbifly.com




SOURCES & CREDITS :

   NOAA